createdAt,value
2023-01-09T00:00:14.518Z,102869.91
2023-01-09T00:01:21.160Z,102869.92
2023-01-09T00:02:24.342Z,102874.37
2023-01-09T00:03:27.451Z,102870.84
2023-01-09T00:04:30.711Z,102863.83
2023-01-09T00:05:33.742Z,102869.97
2023-01-09T00:06:36.885Z,102858.56
2023-01-09T00:07:39.847Z,102864.70
2023-01-09T00:08:42.851Z,102857.67
2023-01-09T00:09:45.764Z,102862.02
2023-01-09T00:10:49.891Z,102852.36
2023-01-09T00:11:54.443Z,102862.02
2023-01-09T00:12:57.408Z,102862.06
2023-01-09T00:14:00.358Z,102856.81
2023-01-09T00:15:04.795Z,102857.72
2023-01-09T00:16:08.862Z,102859.51
2023-01-09T00:17:11.938Z,102861.28
2023-01-09T00:18:14.870Z,102851.62
2023-01-09T00:19:17.901Z,102853.37
2023-01-09T00:20:21.337Z,102862.14
2023-01-09T00:21:24.258Z,102862.14
2023-01-09T00:22:27.176Z,102860.34
2023-01-09T00:23:30.327Z,102859.46
2023-01-09T00:24:33.273Z,102848.92
2023-01-09T00:25:36.426Z,102847.16
2023-01-09T00:26:39.825Z,102851.55
2023-01-09T00:27:43.250Z,102851.53
2023-01-09T00:28:48.306Z,102848.89
2023-01-09T00:29:52.179Z,102850.64
2023-01-09T00:30:56.975Z,102847.13
2023-01-09T00:31:59.913Z,102839.19
2023-01-09T00:33:02.992Z,102840.93
2023-01-09T00:34:09.540Z,102840.05
2023-01-09T00:35:15.805Z,102851.47
2023-01-09T00:36:19.097Z,102839.17
2023-01-09T00:37:22.535Z,102844.44
2023-01-09T00:38:25.675Z,102843.56
2023-01-09T00:39:28.916Z,102861.14
2023-01-09T00:40:32.052Z,102848.84
2023-01-09T00:41:44.483Z,102849.80
2023-01-09T00:42:51.215Z,102859.52
2023-01-09T00:43:57.774Z,102858.73
2023-01-09T00:45:04.131Z,102857.05
2023-01-09T00:46:08.138Z,102851.88
2023-01-09T00:47:19.947Z,102851.95
2023-01-09T00:48:26.716Z,102859.05
2023-01-09T00:49:32.328Z,102854.73
2023-01-09T00:50:36.116Z,102848.66
2023-01-09T00:51:41.171Z,102860.13
2023-01-09T00:52:45.960Z,102857.51
2023-01-09T00:53:50.418Z,102854.06
2023-01-09T00:54:53.599Z,102852.33
2023-01-09T00:56:00.133Z,102850.63
2023-01-09T00:57:03.568Z,102854.14
2023-01-09T00:58:06.815Z,102855.02
2023-01-09T00:59:09.780Z,102865.54
2023-01-09T01:00:13.825Z,102859.41
2023-01-09T01:01:16.937Z,102859.41
2023-01-09T01:02:20.410Z,102856.82
2023-01-09T01:03:23.392Z,102863.85
2023-01-09T01:04:44.664Z,102862.16
2023-01-09T01:06:06.091Z,102859.52
2023-01-09T01:07:27.610Z,102863.93
2023-01-09T01:08:30.598Z,102856.97
2023-01-09T01:09:33.551Z,102856.14
2023-01-09T01:10:36.904Z,102850.03
2023-01-09T01:11:39.764Z,102856.18
2023-01-09T01:12:43.884Z,102854.42
2023-01-09T01:13:46.846Z,102858.81
2023-01-09T01:14:49.763Z,102852.63
2023-01-09T01:15:52.804Z,102856.08
2023-01-09T01:16:55.922Z,102848.13
2023-01-09T01:17:58.787Z,102848.95
2023-01-09T01:19:02.141Z,102841.94
2023-01-09T01:20:07.585Z,102841.05
2023-01-09T01:21:12.267Z,102834.02
2023-01-09T01:22:15.204Z,102841.84
2023-01-09T01:23:18.162Z,102840.02
2023-01-09T01:24:21.136Z,102840.84
2023-01-09T01:25:24.366Z,102845.16
2023-01-09T01:26:27.286Z,102841.62
2023-01-09T01:27:30.214Z,102842.44
2023-01-09T01:28:33.438Z,102838.87
2023-01-09T01:29:36.579Z,102843.23
2023-01-09T01:30:41.064Z,102845.81
2023-01-09T01:31:43.972Z,102843.17
2023-01-09T01:32:47.249Z,102849.30
2023-01-09T01:33:50.200Z,102848.38
2023-01-09T01:34:53.173Z,102842.27
2023-01-09T01:36:07.877Z,102840.46
2023-01-09T01:37:10.862Z,102837.81
2023-01-09T01:38:13.902Z,102843.07
2023-01-09T01:39:17.045Z,102842.16
2023-01-09T01:40:20.356Z,102836.87
2023-01-09T01:41:29.942Z,102837.73
2023-01-09T01:42:33.235Z,102833.34
2023-01-09T01:43:57.939Z,102814.86
2023-01-09T01:45:16.290Z,102827.13
2023-01-09T01:46:20.245Z,102823.62
2023-01-09T01:47:26.702Z,102827.13
2023-01-09T01:48:30.300Z,102824.48
2023-01-09T01:49:33.432Z,102826.23
2023-01-09T01:50:46.114Z,102827.98
2023-01-09T01:51:52.637Z,102821.80
2023-01-09T01:53:04.659Z,102818.28
2023-01-09T01:54:11.168Z,102831.49
2023-01-09T01:55:16.130Z,102824.43
2023-01-09T01:56:25.902Z,102830.62
2023-01-09T01:57:30.445Z,102828.86
2023-01-09T01:58:36.868Z,102830.62
2023-01-09T01:59:48.437Z,102832.38
2023-01-09T02:00:51.880Z,102831.50
2023-01-09T02:01:58.589Z,102843.80
2023-01-09T02:03:02.572Z,102838.53
2023-01-09T02:04:05.606Z,102843.80
2023-01-09T02:05:09.058Z,102837.66
2023-01-09T02:06:13.309Z,102850.83
2023-01-09T02:07:16.268Z,102842.05
2023-01-09T02:08:20.019Z,102839.42
2023-01-09T02:09:24.681Z,102845.58
2023-01-09T02:10:28.147Z,102838.56
2023-01-09T02:11:31.530Z,102842.12
2023-01-09T02:12:34.542Z,102840.37
2023-01-09T02:13:39.886Z,102847.37
2023-01-09T02:14:44.906Z,102839.50
2023-01-09T02:15:57.645Z,102849.17
2023-01-09T02:17:04.298Z,102843.89
2023-01-09T02:18:13.793Z,102835.17
2023-01-09T02:19:23.180Z,102836.06
2023-01-09T02:20:44.706Z,102842.21
2023-01-09T02:22:08.173Z,102839.59
2023-01-09T02:23:32.687Z,102842.27
2023-01-09T02:24:45.291Z,102837.91
2023-01-09T02:26:08.752Z,102834.45
2023-01-09T02:27:27.269Z,102840.62
2023-01-09T02:28:36.764Z,102834.53
2023-01-09T02:30:14.960Z,102837.17
2023-01-09T02:31:37.211Z,102836.31
2023-01-09T02:32:44.159Z,102839.89
2023-01-09T02:34:11.430Z,102834.68
2023-01-09T02:35:17.957Z,102836.44
2023-01-09T02:36:36.411Z,102836.45
2023-01-09T02:38:03.940Z,102837.33
2023-01-09T02:39:13.509Z,102846.16
2023-01-09T02:40:22.116Z,102848.80
2023-01-09T02:41:34.554Z,102840.05
2023-01-09T02:42:40.583Z,102842.73
2023-01-09T02:43:43.680Z,102843.63
2023-01-09T02:44:46.700Z,102852.44
2023-01-09T02:45:49.804Z,102848.93
2023-01-09T02:47:08.012Z,102840.16
2023-01-09T02:48:11.593Z,102846.30
2023-01-09T02:49:16.519Z,102846.30
2023-01-09T02:50:26.419Z,102841.05
2023-01-09T02:51:38.453Z,102844.56
2023-01-09T02:52:44.976Z,102843.69
2023-01-09T02:53:54.722Z,102841.05
2023-01-09T02:55:04.333Z,102836.66
2023-01-09T02:56:16.948Z,102837.53
2023-01-09T02:57:35.684Z,102838.41
2023-01-09T02:58:46.326Z,102834.89
2023-01-09T03:00:16.963Z,102829.63
2023-01-09T03:01:26.680Z,102832.27
2023-01-09T03:02:34.011Z,102835.77
2023-01-09T03:04:01.837Z,102836.66
2023-01-09T03:05:24.749Z,102834.91
2023-01-09T03:06:39.979Z,102832.27
2023-01-09T03:07:49.577Z,102840.18
2023-01-09T03:08:56.859Z,102834.04
2023-01-09T03:10:09.502Z,102841.06
2023-01-09T03:11:12.410Z,102839.34
2023-01-09T03:12:19.008Z,102832.33
2023-01-09T03:13:24.386Z,102837.59
2023-01-09T03:14:30.998Z,102842.81
2023-01-09T03:15:36.581Z,102839.30
2023-01-09T03:16:41.857Z,102833.16
2023-01-09T03:17:48.072Z,102836.67
2023-01-09T03:18:52.457Z,102827.89
2023-01-09T03:19:57.533Z,102837.53
2023-01-09T03:21:01.898Z,102829.63
2023-01-09T03:22:07.160Z,102831.38
2023-01-09T03:23:10.221Z,102823.48
2023-01-09T03:24:13.177Z,102821.73
2023-01-09T03:25:17.724Z,102817.35
2023-01-09T03:26:21.358Z,102828.75
2023-01-09T03:27:24.598Z,102817.35
2023-01-09T03:28:30.336Z,102822.61
2023-01-09T03:29:33.405Z,102824.37
2023-01-09T03:30:37.037Z,102818.23
2023-01-09T03:31:40.053Z,102827.88
2023-01-09T03:32:43.149Z,102827.88
2023-01-09T03:33:46.026Z,102825.25
2023-01-09T03:34:48.984Z,102829.64
2023-01-09T03:35:51.934Z,102825.25
2023-01-09T03:36:54.991Z,102835.78
2023-01-09T03:37:58.651Z,102831.38
2023-01-09T03:39:01.590Z,102834.85
2023-01-09T03:40:05.500Z,102826.08
2023-01-09T03:41:08.553Z,102833.96
2023-01-09T03:42:11.493Z,102826.06
2023-01-09T03:43:14.617Z,102826.06
2023-01-09T03:44:17.694Z,102823.43
2023-01-09T03:45:20.771Z,102827.81
2023-01-09T03:46:23.874Z,102830.44
2023-01-09T03:47:27.103Z,102826.05
2023-01-09T03:48:30.135Z,102826.05
2023-01-09T03:49:33.069Z,102819.91
2023-01-09T03:50:36.312Z,102830.44
2023-01-09T03:51:39.259Z,102822.53
2023-01-09T03:52:42.295Z,102819.91
2023-01-09T03:53:45.323Z,102824.25
2023-01-09T03:54:48.262Z,102816.36
2023-01-09T03:55:53.601Z,102811.08
2023-01-09T03:56:56.583Z,102810.20
2023-01-09T03:57:59.608Z,102818.10
2023-01-09T03:59:02.534Z,102811.97
2023-01-09T04:00:07.941Z,102805.83
2023-01-09T04:01:13.161Z,102815.48
2023-01-09T04:02:16.636Z,102808.50
2023-01-09T04:03:20.704Z,102810.27
2023-01-09T04:04:23.635Z,102816.41
2023-01-09T04:05:26.661Z,102812.91
2023-01-09T04:06:29.820Z,102812.91
2023-01-09T04:07:32.832Z,102803.31
2023-01-09T04:08:35.764Z,102805.96
2023-01-09T04:09:38.683Z,102799.83
2023-01-09T04:10:44.182Z,102805.96
2023-01-09T04:11:47.454Z,102801.59
2023-01-09T04:12:50.380Z,102803.38
2023-01-09T04:13:53.305Z,102799.00
2023-01-09T04:14:56.568Z,102804.27
2023-01-09T04:15:59.680Z,102807.78
2023-01-09T04:17:02.653Z,102807.80
2023-01-09T04:18:05.587Z,102813.11
2023-01-09T04:19:08.506Z,102812.25
2023-01-09T04:20:12.789Z,102814.05
2023-01-09T04:21:15.735Z,102812.33
2023-01-09T04:22:18.697Z,102815.86
2023-01-09T04:23:21.610Z,102815.86
2023-01-09T04:24:24.528Z,102809.73
2023-01-09T04:25:27.600Z,102799.20
2023-01-09T04:26:30.532Z,102804.47
2023-01-09T04:27:34.940Z,102807.09
2023-01-09T04:28:37.993Z,102801.00
2023-01-09T04:29:40.939Z,102803.64
2023-01-09T04:30:44.267Z,102801.90
2023-01-09T04:31:47.286Z,102799.31
2023-01-09T04:32:51.491Z,102801.08
2023-01-09T04:33:54.481Z,102791.44
2023-01-09T04:34:57.516Z,102797.58
2023-01-09T04:36:00.475Z,102797.58
2023-01-09T04:37:03.677Z,102798.45
2023-01-09T04:38:06.724Z,102803.72
2023-01-09T04:39:09.869Z,102808.98
2023-01-09T04:40:13.720Z,102811.61
2023-01-09T04:41:18.540Z,102797.58
2023-01-09T04:42:21.702Z,102799.33
2023-01-09T04:43:24.750Z,102805.47
2023-01-09T04:44:27.718Z,102793.20
2023-01-09T04:45:30.809Z,102791.43
2023-01-09T04:46:34.017Z,102789.67
2023-01-09T04:47:37.267Z,102799.31
2023-01-09T04:48:40.211Z,102792.30
2023-01-09T04:49:43.258Z,102793.17
2023-01-09T04:50:46.189Z,102798.44
2023-01-09T04:51:49.240Z,102795.80
2023-01-09T04:52:52.190Z,102797.52
2023-01-09T04:53:55.127Z,102792.26
2023-01-09T04:54:58.182Z,102789.63
2023-01-09T04:56:01.647Z,102788.79
2023-01-09T04:57:04.621Z,102786.11
2023-01-09T04:58:07.652Z,102788.75
2023-01-09T04:59:10.702Z,102782.61
2023-01-09T05:00:14.579Z,102782.66
2023-01-09T05:01:17.722Z,102787.92
2023-01-09T05:02:20.894Z,102787.94
2023-01-09T05:03:23.913Z,102788.81
2023-01-09T05:04:27.077Z,102798.45
2023-01-09T05:05:30.235Z,102791.44
2023-01-09T05:06:33.802Z,102791.44
2023-01-09T05:07:36.844Z,102797.56
2023-01-09T05:08:39.904Z,102797.56
2023-01-09T05:09:44.148Z,102797.56
2023-01-09T05:10:47.418Z,102801.95
2023-01-09T05:11:50.842Z,102797.56
2023-01-09T05:12:53.767Z,102794.94
2023-01-09T05:13:56.629Z,102799.31
2023-01-09T05:14:59.767Z,102803.70
2023-01-09T05:16:02.751Z,102801.02
2023-01-09T05:17:05.677Z,102805.41
2023-01-09T05:18:08.588Z,102807.16
2023-01-09T05:19:11.776Z,102808.91
2023-01-09T05:20:15.170Z,102805.39
2023-01-09T05:21:18.226Z,102809.77
2023-01-09T05:22:21.365Z,102807.14
2023-01-09T05:23:24.292Z,102808.02
2023-01-09T05:24:27.310Z,102800.13
2023-01-09T05:25:30.266Z,102804.52
2023-01-09T05:26:33.503Z,102808.02
2023-01-09T05:27:36.522Z,102807.14
2023-01-09T05:28:39.504Z,102816.78
2023-01-09T05:29:42.457Z,102814.98
2023-01-09T05:30:46.878Z,102814.98
2023-01-09T05:31:49.942Z,102814.98
2023-01-09T05:32:52.934Z,102809.73
2023-01-09T05:33:57.595Z,102814.98
2023-01-09T05:35:00.584Z,102812.35
2023-01-09T05:36:03.845Z,102819.36
2023-01-09T05:37:06.989Z,102814.11
2023-01-09T05:38:11.025Z,102810.60
2023-01-09T05:39:13.987Z,102808.02
2023-01-09T05:40:17.552Z,102813.34
2023-01-09T05:41:21.366Z,102806.36
2023-01-09T05:42:25.284Z,102811.67
2023-01-09T05:43:28.291Z,102816.98
2023-01-09T05:44:31.223Z,102813.53
2023-01-09T05:45:34.840Z,102810.92
2023-01-09T05:46:37.909Z,102816.23
2023-01-09T05:47:41.280Z,102811.86
2023-01-09T05:48:44.642Z,102807.52
2023-01-09T05:49:47.771Z,102809.27
2023-01-09T05:50:50.812Z,102809.28
2023-01-09T05:51:53.842Z,102809.28
2023-01-09T05:52:56.779Z,102812.80
2023-01-09T05:53:59.979Z,102816.34
2023-01-09T05:55:03.192Z,102818.09
2023-01-09T05:56:06.680Z,102817.22
2023-01-09T05:57:09.867Z,102818.10
2023-01-09T05:58:13.042Z,102818.98
2023-01-09T05:59:16.224Z,102817.23
2023-01-09T06:00:19.840Z,102820.73
2023-01-09T06:01:23.837Z,102820.73
2023-01-09T06:02:27.195Z,102821.61
2023-01-09T06:03:30.114Z,102820.73
2023-01-09T06:04:33.153Z,102823.36
2023-01-09T06:05:36.104Z,102824.23
2023-01-09T06:06:40.345Z,102822.53
2023-01-09T06:07:43.506Z,102826.05
2023-01-09T06:08:46.447Z,102819.91
2023-01-09T06:09:49.806Z,102822.54
2023-01-09T06:10:52.854Z,102823.37
2023-01-09T06:11:56.477Z,102822.48
2023-01-09T06:12:59.525Z,102826.77
2023-01-09T06:14:02.484Z,102833.72
2023-01-09T06:15:08.664Z,102829.27
2023-01-09T06:16:13.130Z,102829.20
2023-01-09T06:17:16.081Z,102835.27
2023-01-09T06:18:19.521Z,102831.70
2023-01-09T06:19:22.472Z,102833.37
2023-01-09T06:25:26.919Z,102835.78
2023-01-09T06:26:29.846Z,102832.27
2023-01-09T06:27:32.923Z,102835.78
2023-01-09T06:28:35.858Z,102834.91
2023-01-09T06:29:39.585Z,102835.77
2023-01-09T06:30:42.588Z,102839.23
2023-01-09T06:31:45.651Z,102842.72
2023-01-09T06:32:49.480Z,102842.67
2023-01-09T06:33:52.679Z,102846.17
2023-01-09T06:34:55.632Z,102837.38
2023-01-09T06:35:58.701Z,102834.70
2023-01-09T06:37:02.198Z,102835.55
2023-01-09T06:38:05.667Z,102832.87
2023-01-09T06:39:09.100Z,102832.81
2023-01-09T06:40:13.479Z,102838.06
2023-01-09T06:41:16.730Z,102839.80
2023-01-09T06:42:20.002Z,102838.00
2023-01-09T06:43:23.375Z,102837.09
2023-01-09T06:44:26.416Z,102844.94
2023-01-09T06:45:29.556Z,102836.14
2023-01-09T06:46:32.615Z,102838.72
2023-01-09T06:47:35.531Z,102837.81
2023-01-09T06:48:38.958Z,102832.54
2023-01-09T06:49:41.839Z,102836.06
2023-01-09T06:50:45.877Z,102830.79
2023-01-09T06:51:50.588Z,102837.80
2023-01-09T06:52:53.730Z,102841.33
2023-01-09T06:53:56.760Z,102840.39
2023-01-09T06:55:00.119Z,102846.52
2023-01-09T06:56:03.509Z,102844.75
2023-01-09T06:57:06.840Z,102842.94
2023-01-09T06:58:09.854Z,102846.44
2023-01-09T06:59:12.974Z,102850.77
2023-01-09T07:00:16.787Z,102844.61
2023-01-09T07:01:19.996Z,102854.25
2023-01-09T07:02:23.368Z,102844.55
2023-01-09T07:03:26.283Z,102862.95
2023-01-09T07:04:29.393Z,102850.59
2023-01-09T07:05:35.925Z,102848.82
2023-01-09T07:06:39.190Z,102854.91
2023-01-09T07:07:42.441Z,102857.51
2023-01-09T07:08:47.776Z,102854.83
2023-01-09T07:09:50.335Z,102853.05
2023-01-09T07:10:53.622Z,102855.62
2023-01-09T07:11:56.586Z,102852.98
2023-01-09T07:12:59.400Z,102860.87
2023-01-09T07:14:02.451Z,102866.12
2023-01-09T07:15:06.042Z,102861.72
2023-01-09T07:16:09.593Z,102859.91
2023-01-09T07:17:13.172Z,102865.19
2023-01-09T07:18:16.325Z,102865.19
2023-01-09T07:19:19.364Z,102861.67
2023-01-09T07:20:23.316Z,102858.15
2023-01-09T07:21:27.189Z,102864.30
2023-01-09T07:22:30.124Z,102859.01
2023-01-09T07:23:33.976Z,102861.59
2023-01-09T07:24:36.915Z,102866.84
2023-01-09T07:25:41.984Z,102865.06
2023-01-09T07:26:45.283Z,102858.87
2023-01-09T07:27:48.238Z,102863.23
2023-01-09T07:28:51.301Z,102871.95
2023-01-09T07:29:54.256Z,102869.30
2023-01-09T07:31:01.160Z,102865.77
2023-01-09T07:32:04.478Z,102868.39
2023-01-09T07:33:07.522Z,102868.33
2023-01-09T07:34:10.569Z,102869.23
2023-01-09T07:35:13.510Z,102868.33
2023-01-09T07:36:17.178Z,102876.23
2023-01-09T07:37:20.116Z,102878.86
2023-01-09T07:38:23.150Z,102876.17
2023-01-09T07:39:26.769Z,102879.68
2023-01-09T07:40:30.022Z,102882.30
2023-01-09T07:41:33.082Z,102874.37
2023-01-09T07:42:36.146Z,102877.84
2023-01-09T07:43:39.498Z,102879.56
2023-01-09T07:44:42.552Z,102875.15
2023-01-09T07:45:46.030Z,102874.20
2023-01-09T07:46:49.288Z,102879.46
2023-01-09T07:47:52.347Z,102881.16
2023-01-09T07:48:55.516Z,102876.74
2023-01-09T07:49:58.569Z,102877.62
2023-01-09T07:51:01.722Z,102867.06
2023-01-09T07:52:04.683Z,102874.11
2023-01-09T07:53:07.732Z,102877.63
2023-01-09T07:54:12.949Z,102867.97
2023-01-09T07:55:17.441Z,102876.76
2023-01-09T07:56:21.639Z,102873.25
2023-01-09T07:57:24.600Z,102869.73
2023-01-09T07:58:27.537Z,102874.17
2023-01-09T07:59:30.479Z,102874.13
2023-01-09T08:00:33.581Z,102868.84
2023-01-09T08:01:36.738Z,102872.36
2023-01-09T08:02:39.768Z,102875.00
2023-01-09T08:03:42.674Z,102875.00
2023-01-09T08:04:45.787Z,102878.52
2023-01-09T08:05:51.296Z,102880.28
2023-01-09T08:06:53.518Z,102874.17
2023-01-09T08:07:56.459Z,102875.94
2023-01-09T08:08:59.604Z,102876.83
2023-01-09T08:10:02.664Z,102873.31
2023-01-09T08:11:05.699Z,102873.34
2023-01-09T08:12:08.787Z,102874.20
2023-01-09T08:13:11.918Z,102874.20
2023-01-09T08:14:14.954Z,102882.10
2023-01-09T08:15:18.122Z,102874.19
2023-01-09T08:16:21.142Z,102875.06
2023-01-09T08:17:26.430Z,102875.94
2023-01-09T08:18:28.866Z,102876.81
2023-01-09T08:19:31.803Z,102882.91
2023-01-09T08:20:34.990Z,102882.02
2023-01-09T08:21:39.035Z,102879.31
2023-01-09T08:22:43.352Z,102875.78
2023-01-09T08:23:46.468Z,102874.91
2023-01-09T08:24:49.470Z,102874.96
2023-01-09T13:32:03.070Z,102721.56
2023-01-09T13:34:35.675Z,102715.52
2023-01-09T13:35:53.987Z,102720.10
2023-01-09T13:36:58.312Z,102718.16
2023-01-09T13:38:01.400Z,102726.83
2023-01-09T13:39:05.038Z,102724.93
2023-01-09T13:40:26.447Z,102723.85
2023-01-09T13:41:49.077Z,102728.13
2023-01-09T13:43:04.926Z,102727.12
2023-01-09T13:44:25.384Z,102726.09
2023-01-09T13:45:31.979Z,102729.50
2023-01-09T13:46:44.301Z,102724.06
2023-01-09T13:47:49.561Z,102721.28
2023-01-09T13:48:52.656Z,102731.73
2023-01-09T13:50:10.683Z,102727.25
2023-01-09T13:51:44.615Z,102728.91
2023-01-09T13:52:47.486Z,102733.22
2023-01-09T13:53:50.465Z,102726.91
2023-01-09T13:55:00.037Z,102730.44
2023-01-09T13:56:05.764Z,102729.47
2023-01-09T13:57:21.130Z,102718.73
2023-01-09T13:58:32.386Z,102720.47
2023-01-09T13:59:35.275Z,102721.34
2023-01-09T14:00:42.046Z,102722.13
2023-01-09T14:01:46.915Z,102723.00
2023-01-09T14:02:59.071Z,102733.62
2023-01-09T14:04:13.377Z,102726.52
2023-01-09T14:05:25.989Z,102725.61
2023-01-09T14:06:29.339Z,102731.79
2023-01-09T14:07:37.032Z,102727.34
2023-01-09T14:08:41.493Z,102724.70
2023-01-09T14:09:48.088Z,102716.73
2023-01-09T14:11:01.083Z,102719.39
2023-01-09T14:12:06.298Z,102714.94
2023-01-09T14:13:15.562Z,102711.37
2023-01-09T14:14:25.225Z,102712.21
2023-01-09T14:15:31.779Z,102714.08
2023-01-09T14:16:36.697Z,102707.94
2023-01-09T14:17:39.815Z,102722.13
2023-01-09T14:19:07.349Z,102709.85
2023-01-09T14:20:13.956Z,102712.55
2023-01-09T14:21:17.321Z,102707.29
2023-01-09T14:22:29.440Z,102701.15
2023-01-09T14:23:50.948Z,102700.28
2023-01-09T14:24:45.637Z,102702.06
2023-01-09T14:25:50.729Z,102702.06
2023-01-09T14:26:59.486Z,102703.84
2023-01-09T14:28:07.632Z,102708.23
2023-01-09T14:29:33.773Z,102712.67
2023-01-09T14:30:55.486Z,102710.02
2023-01-09T16:52:35.887Z,102757.88
2023-01-09T16:53:38.847Z,102756.06
2023-01-09T16:54:43.263Z,102754.11
2023-01-09T16:55:46.977Z,102758.32
2023-01-09T16:56:53.008Z,102762.56
2023-01-09T16:57:56.028Z,102769.45
2023-01-09T16:58:59.088Z,102766.66
2023-01-09T17:00:03.238Z,102766.52
2023-01-09T17:01:06.609Z,102774.30
2023-01-09T17:02:18.589Z,102775.92
2023-01-09T17:03:22.036Z,102775.80
2023-01-09T17:04:25.130Z,102772.14
2023-01-09T17:05:28.115Z,102774.66
2023-01-09T17:06:32.290Z,102775.41
2023-01-09T17:07:37.330Z,102774.41
2023-01-09T17:08:40.837Z,102782.22
2023-01-09T17:09:45.290Z,102777.74
2023-01-09T17:10:49.234Z,102783.78
2023-01-09T17:11:52.323Z,102777.48
2023-01-09T17:12:56.470Z,102771.27
2023-01-09T17:14:01.363Z,102775.59
2023-01-09T17:15:04.934Z,102779.03
2023-01-09T17:16:10.649Z,102779.81
2023-01-09T17:17:14.199Z,102784.10
2023-01-09T17:18:22.935Z,102785.78
2023-01-09T17:19:26.029Z,102787.42
2023-01-09T17:20:30.001Z,102781.12
2023-01-09T17:21:32.979Z,102781.94
2023-01-09T17:22:36.072Z,102772.12
2023-01-09T17:23:39.260Z,102778.19
2023-01-09T17:25:00.405Z,102776.38
2023-01-09T17:26:21.679Z,102773.62
2023-01-09T17:27:50.030Z,102770.03
2023-01-09T17:28:53.157Z,102768.23
2023-01-09T17:29:56.243Z,102772.55
2023-01-09T17:31:10.934Z,102778.72
2023-01-09T17:32:17.898Z,102779.59
2023-01-09T17:33:21.185Z,102774.26
2023-01-09T17:34:24.415Z,102777.70
2023-01-09T17:35:27.385Z,102778.64
2023-01-09T17:36:33.964Z,102775.06
2023-01-09T17:37:36.926Z,102772.48
2023-01-09T17:38:39.998Z,102776.03
2023-01-09T17:39:43.791Z,102775.16
2023-01-09T17:40:46.859Z,102778.68
2023-01-09T17:41:50.071Z,102785.72
2023-01-09T17:42:53.169Z,102777.77
2023-01-09T17:43:56.859Z,102778.58
2023-01-09T17:44:59.907Z,102782.97
2023-01-09T17:46:03.173Z,102784.71
2023-01-09T17:47:06.728Z,102787.33
2023-01-09T17:48:18.969Z,102788.20
2023-01-09T17:49:22.971Z,102786.38
2023-01-09T17:50:27.915Z,102787.25
2023-01-09T17:51:31.006Z,102786.34
2023-01-09T17:52:34.080Z,102789.87
2023-01-09T17:53:37.046Z,102780.15
2023-01-09T17:54:40.237Z,102787.19
2023-01-09T17:55:43.315Z,102787.19
2023-01-09T17:56:50.247Z,102788.06
2023-01-09T17:57:53.511Z,102784.54
2023-01-09T17:58:56.628Z,102785.41
2023-01-09T17:59:59.713Z,102788.09
2023-01-09T18:01:02.946Z,102794.26
2023-01-09T18:02:06.552Z,102791.64
2023-01-09T18:03:09.545Z,102789.87
2023-01-09T18:04:12.559Z,102788.12
2023-01-09T18:05:15.725Z,102785.48
2023-01-09T18:06:21.002Z,102789.00
2023-01-09T18:07:24.035Z,102783.73
2023-01-09T18:08:27.229Z,102782.90
2023-01-09T18:09:30.356Z,102783.80
2023-01-09T18:10:33.378Z,102780.28
2023-01-09T18:11:36.453Z,102787.36
2023-01-09T18:12:39.532Z,102787.36
2023-01-09T18:13:43.298Z,102782.97
2023-01-09T18:14:47.833Z,102791.81
2023-01-09T18:15:51.637Z,102786.52
2023-01-09T18:16:55.069Z,102786.59
2023-01-09T18:17:58.167Z,102785.72
2023-01-09T18:19:01.416Z,102785.72
2023-01-09T18:20:05.241Z,102783.98
2023-01-09T18:21:08.930Z,102793.70
2023-01-09T18:22:11.924Z,102790.21
2023-01-09T18:23:15.857Z,102799.02
2023-01-09T18:24:18.836Z,102787.62
2023-01-09T18:25:21.837Z,102796.37
2023-01-09T18:26:24.814Z,102779.69
2023-01-09T18:27:28.217Z,102787.62
2023-01-09T18:28:31.147Z,102793.83
2023-01-09T18:29:34.062Z,102796.52
2023-01-09T18:30:37.035Z,102798.25
2023-01-09T18:31:40.130Z,102790.34
2023-01-09T18:32:43.156Z,102798.29
2023-01-09T18:33:46.235Z,102800.94
2023-01-09T18:34:49.410Z,102801.84
2023-01-09T18:35:52.576Z,102796.55
2023-01-09T18:36:55.586Z,102800.97
2023-01-09T18:37:58.482Z,102800.97
2023-01-09T18:39:03.511Z,102805.39
2023-01-09T18:40:07.576Z,102803.61
2023-01-09T18:41:11.051Z,102810.69
2023-01-09T18:42:14.177Z,102808.04
2023-01-09T18:43:19.016Z,102807.20
2023-01-09T18:44:22.883Z,102810.75
2023-01-09T18:45:26.307Z,102803.72
2023-01-09T18:46:31.249Z,102801.06
2023-01-09T18:47:34.239Z,102803.72
2023-01-09T18:48:37.279Z,102797.55
2023-01-09T18:49:40.252Z,102797.55
2023-01-09T18:50:45.063Z,102804.59
2023-01-09T18:51:48.340Z,102812.53
2023-01-09T18:52:51.482Z,102809.91
2023-01-09T18:53:55.202Z,102804.62
2023-01-09T18:54:58.302Z,102812.59
2023-01-09T18:57:14.793Z,102808.74
2023-01-09T18:58:17.730Z,102804.66
2023-01-09T18:59:20.647Z,102810.82
2023-01-09T19:00:23.930Z,102806.43
2023-01-09T19:01:28.617Z,102805.59
2023-01-09T19:02:31.714Z,102802.95
2023-01-09T19:03:34.818Z,102803.84
2023-01-09T19:04:37.819Z,102804.75
2023-01-09T19:05:40.868Z,102805.66
2023-01-09T19:06:44.107Z,102802.17
2023-01-09T19:07:47.290Z,102803.98
2023-01-09T19:08:50.320Z,102804.81
2023-01-09T19:09:53.464Z,102804.81
2023-01-09T19:10:57.257Z,102803.05
2023-01-09T19:12:00.263Z,102801.33
2023-01-09T19:13:03.433Z,102800.46
2023-01-09T19:14:06.417Z,102802.30
2023-01-09T19:15:11.078Z,102798.88
2023-01-09T19:16:14.136Z,102806.88
2023-01-09T19:17:17.341Z,102808.73
2023-01-09T19:18:20.408Z,102808.73
2023-01-09T19:19:23.441Z,102806.98
2023-01-09T19:20:26.485Z,102800.81
2023-01-09T19:21:29.346Z,102802.59
2023-01-09T19:22:32.591Z,102806.11
2023-01-09T19:23:35.665Z,102801.72
2023-01-09T19:24:39.031Z,102799.95
2023-01-09T19:25:42.201Z,102799.95
2023-01-09T19:26:47.303Z,102793.78
2023-01-09T19:27:52.184Z,102803.47
2023-01-09T19:28:56.885Z,102796.40
2023-01-09T19:29:59.988Z,102799.05
2023-01-09T19:31:03.259Z,102798.17
2023-01-09T19:32:07.913Z,102801.72
2023-01-09T19:33:11.918Z,102803.50
2023-01-09T19:34:15.510Z,102802.63
2023-01-09T19:35:19.588Z,102806.20
2023-01-09T19:36:22.613Z,102801.79
2023-01-09T19:37:25.708Z,102809.75
2023-01-09T19:38:28.885Z,102806.23
2023-01-09T19:39:31.927Z,102807.98
2023-01-09T19:40:35.983Z,102800.05
2023-01-09T19:41:39.213Z,102794.75
2023-01-09T19:42:42.322Z,102802.69
2023-01-09T19:43:46.397Z,102800.05
2023-01-09T19:44:49.486Z,102788.63
2023-01-09T19:45:53.857Z,102789.52
2023-01-09T19:46:57.211Z,102789.59
2023-01-09T19:48:00.328Z,102788.72
2023-01-09T19:49:04.509Z,102792.27
2023-01-09T19:50:08.470Z,102794.98
2023-01-09T19:51:13.127Z,102796.84
2023-01-09T19:52:16.421Z,102796.91
2023-01-09T19:53:19.619Z,102793.45
2023-01-09T19:54:22.623Z,102790.84
2023-01-09T19:55:25.589Z,102786.45
2023-01-09T19:56:35.076Z,102787.36